sensor_id;sensor_type;location;lat;lon;timestamp;P1;durP1;ratioP1;P2;durP2;ratioP2
52956;SDS011;38819;42.692;23.342;2023-04-25T00:01:45;3.88;;;3.58;;
52956;SDS011;38819;42.692;23.342;2023-04-25T00:04:11;6.57;;;3.35;;
52956;SDS011;38819;42.692;23.342;2023-04-25T00:06:37;4.55;;;4.15;;
52956;SDS011;38819;42.692;23.342;2023-04-25T00:09:06;6.55;;;4.20;;
52956;SDS011;38819;42.692;23.342;2023-04-25T00:11:35;4.20;;;3.72;;
52956;SDS011;38819;42.692;23.342;2023-04-25T00:14:02;4.28;;;3.60;;
52956;SDS011;38819;42.692;23.342;2023-04-25T00:16:28;4.45;;;3.20;;
52956;SDS011;38819;42.692;23.342;2023-04-25T00:21:21;4.60;;;3.60;;
52956;SDS011;38819;42.692;23.342;2023-04-25T00:23:49;3.80;;;3.47;;
52956;SDS011;38819;42.692;23.342;2023-04-25T00:26:15;4.82;;;3.60;;
52956;SDS011;38819;42.692;23.342;2023-04-25T00:28:40;4.72;;;4.32;;
52956;SDS011;38819;42.692;23.342;2023-04-25T00:31:06;4.20;;;3.80;;
52956;SDS011;38819;42.692;23.342;2023-04-25T00:33:31;4.68;;;4.28;;
52956;SDS011;38819;42.692;23.342;2023-04-25T00:35:57;8.10;;;4.80;;
52956;SDS011;38819;42.692;23.342;2023-04-25T00:38:22;4.90;;;4.07;;
52956;SDS011;38819;42.692;23.342;2023-04-25T00:40:47;5.90;;;4.55;;
52956;SDS011;38819;42.692;23.342;2023-04-25T00:43:13;6.90;;;4.20;;
52956;SDS011;38819;42.692;23.342;2023-04-25T00:45:39;8.70;;;4.22;;
52956;SDS011;38819;42.692;23.342;2023-04-25T00:48:05;5.18;;;4.28;;
52956;SDS011;38819;42.692;23.342;2023-04-25T00:50:32;5.28;;;4.45;;
52956;SDS011;38819;42.692;23.342;2023-04-25T00:52:59;4.55;;;4.15;;
52956;SDS011;38819;42.692;23.342;2023-04-25T00:55:25;4.60;;;4.20;;
52956;SDS011;38819;42.692;23.342;2023-04-25T00:57:51;4.60;;;3.78;;
52956;SDS011;38819;42.692;23.342;2023-04-25T01:00:16;4.20;;;3.90;;
52956;SDS011;38819;42.692;23.342;2023-04-25T01:02:43;4.60;;;4.20;;
52956;SDS011;38819;42.692;23.342;2023-04-25T01:05:09;4.70;;;4.30;;
52956;SDS011;38819;42.692;23.342;2023-04-25T01:07:35;4.63;;;4.07;;
52956;SDS011;38819;42.692;23.342;2023-04-25T01:10:01;4.65;;;4.25;;
52956;SDS011;38819;42.692;23.342;2023-04-25T01:12:27;7.63;;;4.45;;
52956;SDS011;38819;42.692;23.342;2023-04-25T01:14:53;5.97;;;5.43;;
52956;SDS011;38819;42.692;23.342;2023-04-25T01:17:18;4.93;;;4.43;;
52956;SDS011;38819;42.692;23.342;2023-04-25T01:19:44;5.20;;;4.38;;
52956;SDS011;38819;42.692;23.342;2023-04-25T01:22:13;4.53;;;4.13;;
52956;SDS011;38819;42.692;23.342;2023-04-25T01:24:39;6.47;;;4.43;;
52956;SDS011;38819;42.692;23.342;2023-04-25T01:27:05;6.15;;;4.40;;
52956;SDS011;38819;42.692;23.342;2023-04-25T01:29:31;5.00;;;4.57;;
52956;SDS011;38819;42.692;23.342;2023-04-25T01:31:57;7.97;;;5.05;;
52956;SDS011;38819;42.692;23.342;2023-04-25T01:34:24;5.73;;;4.73;;
52956;SDS011;38819;42.692;23.342;2023-04-25T01:36:50;5.30;;;4.80;;
52956;SDS011;38819;42.692;23.342;2023-04-25T01:39:19;4.70;;;4.30;;
52956;SDS011;38819;42.692;23.342;2023-04-25T01:41:46;6.18;;;4.50;;
52956;SDS011;38819;42.692;23.342;2023-04-25T01:44:12;7.90;;;4.80;;
52956;SDS011;38819;42.692;23.342;2023-04-25T01:46:38;6.15;;;4.57;;
52956;SDS011;38819;42.692;23.342;2023-04-25T01:49:04;4.10;;;3.70;;
52956;SDS011;38819;42.692;23.342;2023-04-25T01:51:29;4.55;;;4.15;;
52956;SDS011;38819;42.692;23.342;2023-04-25T01:53:55;5.28;;;4.43;;
52956;SDS011;38819;42.692;23.342;2023-04-25T01:56:21;6.53;;;3.83;;
52956;SDS011;38819;42.692;23.342;2023-04-25T01:58:47;4.88;;;4.22;;
52956;SDS011;38819;42.692;23.342;2023-04-25T02:01:12;7.80;;;4.60;;
52956;SDS011;38819;42.692;23.342;2023-04-25T02:03:38;5.10;;;4.55;;
52956;SDS011;38819;42.692;23.342;2023-04-25T02:06:03;4.85;;;4.45;;
52956;SDS011;38819;42.692;23.342;2023-04-25T02:08:29;4.38;;;3.97;;
52956;SDS011;38819;42.692;23.342;2023-04-25T02:10:55;6.38;;;3.80;;
52956;SDS011;38819;42.692;23.342;2023-04-25T02:13:20;4.75;;;4.28;;
52956;SDS011;38819;42.692;23.342;2023-04-25T02:15:46;5.97;;;4.20;;
52956;SDS011;38819;42.692;23.342;2023-04-25T02:18:11;5.70;;;4.35;;
52956;SDS011;38819;42.692;23.342;2023-04-25T02:20:36;8.10;;;4.47;;
52956;SDS011;38819;42.692;23.342;2023-04-25T02:23:02;4.78;;;4.38;;
52956;SDS011;38819;42.692;23.342;2023-04-25T02:25:28;6.88;;;4.60;;
52956;SDS011;38819;42.692;23.342;2023-04-25T02:27:54;4.50;;;4.10;;
52956;SDS011;38819;42.692;23.342;2023-04-25T02:30:19;7.93;;;4.60;;
52956;SDS011;38819;42.692;23.342;2023-04-25T02:32:45;7.07;;;5.10;;
52956;SDS011;38819;42.692;23.342;2023-04-25T02:35:10;6.43;;;5.07;;
52956;SDS011;38819;42.692;23.342;2023-04-25T02:37:36;5.22;;;4.30;;
52956;SDS011;38819;42.692;23.342;2023-04-25T02:40:03;5.82;;;4.43;;
52956;SDS011;38819;42.692;23.342;2023-04-25T02:42:29;7.32;;;5.03;;
52956;SDS011;38819;42.692;23.342;2023-04-25T02:44:55;7.97;;;4.88;;
52956;SDS011;38819;42.692;23.342;2023-04-25T02:47:21;5.30;;;4.90;;
52956;SDS011;38819;42.692;23.342;2023-04-25T02:49:46;6.47;;;4.97;;
52956;SDS011;38819;42.692;23.342;2023-04-25T02:52:12;5.78;;;5.28;;
52956;SDS011;38819;42.692;23.342;2023-04-25T02:54:38;7.50;;;5.60;;
52956;SDS011;38819;42.692;23.342;2023-04-25T02:57:03;5.28;;;4.78;;
52956;SDS011;38819;42.692;23.342;2023-04-25T02:59:29;6.30;;;5.63;;
52956;SDS011;38819;42.692;23.342;2023-04-25T03:01:55;6.68;;;6.07;;
52956;SDS011;38819;42.692;23.342;2023-04-25T03:04:20;6.32;;;5.72;;
52956;SDS011;38819;42.692;23.342;2023-04-25T03:06:48;6.38;;;5.28;;
52956;SDS011;38819;42.692;23.342;2023-04-25T03:09:18;8.68;;;5.97;;
52956;SDS011;38819;42.692;23.342;2023-04-25T03:11:44;6.97;;;5.78;;
52956;SDS011;38819;42.692;23.342;2023-04-25T03:14:09;8.20;;;5.57;;
52956;SDS011;38819;42.692;23.342;2023-04-25T03:16:35;8.30;;;6.18;;
52956;SDS011;38819;42.692;23.342;2023-04-25T03:19:01;7.85;;;5.30;;
52956;SDS011;38819;42.692;23.342;2023-04-25T03:21:27;6.95;;;6.10;;
52956;SDS011;38819;42.692;23.342;2023-04-25T03:23:52;6.70;;;6.03;;
52956;SDS011;38819;42.692;23.342;2023-04-25T03:26:18;8.75;;;6.38;;
52956;SDS011;38819;42.692;23.342;2023-04-25T03:28:43;6.25;;;5.65;;
52956;SDS011;38819;42.692;23.342;2023-04-25T03:31:08;7.30;;;6.22;;
52956;SDS011;38819;42.692;23.342;2023-04-25T03:33:34;7.35;;;5.28;;
52956;SDS011;38819;42.692;23.342;2023-04-25T03:35:59;5.75;;;5.25;;
52956;SDS011;38819;42.692;23.342;2023-04-25T03:38:25;5.93;;;5.40;;
52956;SDS011;38819;42.692;23.342;2023-04-25T03:40:51;8.13;;;5.85;;
52956;SDS011;38819;42.692;23.342;2023-04-25T03:43:16;11.35;;;7.03;;
52956;SDS011;38819;42.692;23.342;2023-04-25T03:45:42;8.00;;;6.43;;
52956;SDS011;38819;42.692;23.342;2023-04-25T03:48:08;6.43;;;5.78;;
52956;SDS011;38819;42.692;23.342;2023-04-25T03:50:34;9.75;;;6.57;;
52956;SDS011;38819;42.692;23.342;2023-04-25T03:52:59;8.40;;;6.07;;
52956;SDS011;38819;42.692;23.342;2023-04-25T03:55:25;6.95;;;5.80;;
52956;SDS011;38819;42.692;23.342;2023-04-25T03:57:50;7.72;;;6.00;;
52956;SDS011;38819;42.692;23.342;2023-04-25T04:00:16;7.10;;;6.40;;
52956;SDS011;38819;42.692;23.342;2023-04-25T04:02:41;7.05;;;6.30;;
52956;SDS011;38819;42.692;23.342;2023-04-25T04:05:07;6.70;;;6.07;;
52956;SDS011;38819;42.692;23.342;2023-04-25T04:07:32;8.05;;;5.53;;
52956;SDS011;38819;42.692;23.342;2023-04-25T04:09:58;6.65;;;5.95;;
52956;SDS011;38819;42.692;23.342;2023-04-25T04:12:24;8.43;;;6.70;;
52956;SDS011;38819;42.692;23.342;2023-04-25T04:14:49;8.55;;;7.38;;
52956;SDS011;38819;42.692;23.342;2023-04-25T04:17:15;8.45;;;7.63;;
52956;SDS011;38819;42.692;23.342;2023-04-25T04:19:41;9.45;;;8.45;;
52956;SDS011;38819;42.692;23.342;2023-04-25T04:22:06;10.60;;;8.93;;
52956;SDS011;38819;42.692;23.342;2023-04-25T04:24:31;10.63;;;9.50;;
52956;SDS011;38819;42.692;23.342;2023-04-25T04:26:57;11.20;;;8.93;;
52956;SDS011;38819;42.692;23.342;2023-04-25T04:29:24;12.68;;;10.38;;
52956;SDS011;38819;42.692;23.342;2023-04-25T04:31:50;11.23;;;9.45;;
52956;SDS011;38819;42.692;23.342;2023-04-25T04:34:17;10.45;;;9.38;;
52956;SDS011;38819;42.692;23.342;2023-04-25T04:36:43;10.20;;;9.27;;
52956;SDS011;38819;42.692;23.342;2023-04-25T04:39:11;9.60;;;8.27;;
52956;SDS011;38819;42.692;23.342;2023-04-25T04:41:37;9.90;;;8.90;;
52956;SDS011;38819;42.692;23.342;2023-04-25T04:44:02;11.30;;;8.60;;
52956;SDS011;38819;42.692;23.342;2023-04-25T04:46:28;9.75;;;8.40;;
52956;SDS011;38819;42.692;23.342;2023-04-25T04:48:53;9.05;;;8.25;;
52956;SDS011;38819;42.692;23.342;2023-04-25T04:51:19;12.60;;;8.10;;
52956;SDS011;38819;42.692;23.342;2023-04-25T04:53:45;8.83;;;7.97;;
52956;SDS011;38819;42.692;23.342;2023-04-25T04:56:11;10.50;;;8.48;;
52956;SDS011;38819;42.692;23.342;2023-04-25T04:58:36;9.88;;;8.88;;
52956;SDS011;38819;42.692;23.342;2023-04-25T05:01:02;13.23;;;9.45;;
52956;SDS011;38819;42.692;23.342;2023-04-25T05:03:27;11.15;;;9.50;;
52956;SDS011;38819;42.692;23.342;2023-04-25T05:05:53;13.88;;;8.95;;
52956;SDS011;38819;42.692;23.342;2023-04-25T05:08:18;10.32;;;9.23;;
52956;SDS011;38819;42.692;23.342;2023-04-25T05:10:44;11.43;;;9.88;;
52956;SDS011;38819;42.692;23.342;2023-04-25T05:13:09;13.00;;;9.52;;
52956;SDS011;38819;42.692;23.342;2023-04-25T05:15:35;11.15;;;10.05;;
52956;SDS011;38819;42.692;23.342;2023-04-25T05:18:00;10.45;;;9.30;;
52956;SDS011;38819;42.692;23.342;2023-04-25T05:20:26;10.18;;;8.50;;
52956;SDS011;38819;42.692;23.342;2023-04-25T05:22:51;12.07;;;10.05;;
52956;SDS011;38819;42.692;23.342;2023-04-25T05:25:17;12.40;;;9.65;;
52956;SDS011;38819;42.692;23.342;2023-04-25T05:27:43;12.38;;;8.55;;
52956;SDS011;38819;42.692;23.342;2023-04-25T05:30:08;14.75;;;9.18;;
52956;SDS011;38819;42.692;23.342;2023-04-25T05:32:34;11.80;;;8.05;;
52956;SDS011;38819;42.692;23.342;2023-04-25T05:35:00;9.35;;;8.07;;
52956;SDS011;38819;42.692;23.342;2023-04-25T05:37:26;10.50;;;7.80;;
52956;SDS011;38819;42.692;23.342;2023-04-25T05:39:51;14.48;;;9.23;;
52956;SDS011;38819;42.692;23.342;2023-04-25T05:42:17;12.40;;;9.50;;
52956;SDS011;38819;42.692;23.342;2023-04-25T05:44:42;13.55;;;9.23;;
52956;SDS011;38819;42.692;23.342;2023-04-25T05:47:07;11.02;;;8.88;;
52956;SDS011;38819;42.692;23.342;2023-04-25T05:49:33;12.93;;;8.30;;
52956;SDS011;38819;42.692;23.342;2023-04-25T05:51:59;9.95;;;8.15;;
52956;SDS011;38819;42.692;23.342;2023-04-25T05:54:25;13.20;;;8.75;;
52956;SDS011;38819;42.692;23.342;2023-04-25T05:56:50;10.88;;;8.52;;
52956;SDS011;38819;42.692;23.342;2023-04-25T05:59:16;13.23;;;9.38;;
52956;SDS011;38819;42.692;23.342;2023-04-25T06:01:41;15.13;;;10.10;;
52956;SDS011;38819;42.692;23.342;2023-04-25T06:04:07;14.27;;;10.98;;
52956;SDS011;38819;42.692;23.342;2023-04-25T06:06:32;13.30;;;9.40;;
52956;SDS011;38819;42.692;23.342;2023-04-25T06:08:58;9.57;;;6.40;;
52956;SDS011;38819;42.692;23.342;2023-04-25T06:11:23;7.25;;;6.53;;
52956;SDS011;38819;42.692;23.342;2023-04-25T06:13:48;10.57;;;6.50;;
52956;SDS011;38819;42.692;23.342;2023-04-25T06:16:14;8.98;;;6.75;;
52956;SDS011;38819;42.692;23.342;2023-04-25T06:18:41;7.47;;;6.53;;
52956;SDS011;38819;42.692;23.342;2023-04-25T06:21:06;6.28;;;5.63;;
52956;SDS011;38819;42.692;23.342;2023-04-25T06:23:32;5.85;;;5.25;;
52956;SDS011;38819;42.692;23.342;2023-04-25T06:25:57;8.80;;;6.38;;
52956;SDS011;38819;42.692;23.342;2023-04-25T06:28:22;13.00;;;6.70;;
52956;SDS011;38819;42.692;23.342;2023-04-25T06:30:49;10.45;;;7.10;;
52956;SDS011;38819;42.692;23.342;2023-04-25T06:33:15;9.70;;;7.32;;
52956;SDS011;38819;42.692;23.342;2023-04-25T06:35:40;10.75;;;6.75;;
52956;SDS011;38819;42.692;23.342;2023-04-25T06:38:06;12.18;;;6.95;;
52956;SDS011;38819;42.692;23.342;2023-04-25T06:40:31;15.18;;;10.70;;
52956;SDS011;38819;42.692;23.342;2023-04-25T06:42:56;19.58;;;13.10;;
52956;SDS011;38819;42.692;23.342;2023-04-25T06:45:22;14.55;;;7.95;;
52956;SDS011;38819;42.692;23.342;2023-04-25T06:47:47;9.60;;;6.82;;
52956;SDS011;38819;42.692;23.342;2023-04-25T06:50:13;11.80;;;7.15;;
52956;SDS011;38819;42.692;23.342;2023-04-25T06:52:38;14.30;;;6.97;;
52956;SDS011;38819;42.692;23.342;2023-04-25T06:55:04;11.65;;;7.70;;
52956;SDS011;38819;42.692;23.342;2023-04-25T06:57:30;21.58;;;9.55;;
52956;SDS011;38819;42.692;23.342;2023-04-25T06:59:56;18.48;;;8.65;;
52956;SDS011;38819;42.692;23.342;2023-04-25T07:02:21;13.13;;;7.55;;
52956;SDS011;38819;42.692;23.342;2023-04-25T07:04:47;13.85;;;7.40;;
52956;SDS011;38819;42.692;23.342;2023-04-25T07:07:13;13.38;;;8.63;;
52956;SDS011;38819;42.692;23.342;2023-04-25T07:09:38;10.57;;;7.85;;
52956;SDS011;38819;42.692;23.342;2023-04-25T07:12:04;12.80;;;8.68;;
52956;SDS011;38819;42.692;23.342;2023-04-25T07:14:29;18.30;;;8.93;;
52956;SDS011;38819;42.692;23.342;2023-04-25T07:16:55;18.00;;;9.25;;
52956;SDS011;38819;42.692;23.342;2023-04-25T07:19:23;14.75;;;9.25;;
52956;SDS011;38819;42.692;23.342;2023-04-25T07:21:54;26.38;;;9.10;;
52956;SDS011;38819;42.692;23.342;2023-04-25T07:24:21;15.00;;;8.97;;
52956;SDS011;38819;42.692;23.342;2023-04-25T07:26:46;20.85;;;9.13;;
52956;SDS011;38819;42.692;23.342;2023-04-25T07:29:12;16.23;;;8.73;;
52956;SDS011;38819;42.692;23.342;2023-04-25T07:31:37;24.00;;;9.32;;
52956;SDS011;38819;42.692;23.342;2023-04-25T07:34:03;29.63;;;9.23;;
52956;SDS011;38819;42.692;23.342;2023-04-25T07:36:28;27.38;;;15.77;;
52956;SDS011;38819;42.692;23.342;2023-04-25T07:38:55;28.40;;;9.32;;
52956;SDS011;38819;42.692;23.342;2023-04-25T07:41:21;21.40;;;8.93;;
52956;SDS011;38819;42.692;23.342;2023-04-25T07:43:46;26.48;;;9.48;;
52956;SDS011;38819;42.692;23.342;2023-04-25T07:46:11;24.45;;;10.20;;
52956;SDS011;38819;42.692;23.342;2023-04-25T07:48:37;26.80;;;9.68;;
52956;SDS011;38819;42.692;23.342;2023-04-25T07:51:02;23.17;;;8.57;;
52956;SDS011;38819;42.692;23.342;2023-04-25T07:53:30;12.55;;;7.60;;
52956;SDS011;38819;42.692;23.342;2023-04-25T07:55:57;21.80;;;8.23;;
52956;SDS011;38819;42.692;23.342;2023-04-25T07:58:22;15.48;;;7.72;;
52956;SDS011;38819;42.692;23.342;2023-04-25T08:00:48;25.05;;;8.00;;
52956;SDS011;38819;42.692;23.342;2023-04-25T08:03:13;31.10;;;8.07;;
52956;SDS011;38819;42.692;23.342;2023-04-25T08:05:39;26.08;;;8.10;;
52956;SDS011;38819;42.692;23.342;2023-04-25T08:08:04;16.20;;;6.75;;
52956;SDS011;38819;42.692;23.342;2023-04-25T08:10:31;22.15;;;7.68;;
52956;SDS011;38819;42.692;23.342;2023-04-25T08:12:57;18.20;;;6.88;;
52956;SDS011;38819;42.692;23.342;2023-04-25T08:15:23;19.17;;;7.38;;
52956;SDS011;38819;42.692;23.342;2023-04-25T08:17:48;20.15;;;7.32;;
52956;SDS011;38819;42.692;23.342;2023-04-25T08:20:14;17.08;;;9.65;;
52956;SDS011;38819;42.692;23.342;2023-04-25T08:22:39;13.10;;;6.97;;
52956;SDS011;38819;42.692;23.342;2023-04-25T08:25:05;11.15;;;6.13;;
52956;SDS011;38819;42.692;23.342;2023-04-25T08:27:30;13.63;;;5.72;;
52956;SDS011;38819;42.692;23.342;2023-04-25T08:29:56;12.60;;;5.78;;
52956;SDS011;38819;42.692;23.342;2023-04-25T08:32:22;21.27;;;6.32;;
52956;SDS011;38819;42.692;23.342;2023-04-25T08:34:48;13.07;;;5.38;;
52956;SDS011;38819;42.692;23.342;2023-04-25T08:37:13;11.00;;;5.05;;
52956;SDS011;38819;42.692;23.342;2023-04-25T08:39:39;10.40;;;4.80;;
52956;SDS011;38819;42.692;23.342;2023-04-25T08:42:05;9.07;;;4.80;;
52956;SDS011;38819;42.692;23.342;2023-04-25T08:44:35;6.38;;;5.03;;
52956;SDS011;38819;42.692;23.342;2023-04-25T08:47:04;18.70;;;9.60;;
52956;SDS011;38819;42.692;23.342;2023-04-25T08:49:33;15.13;;;8.90;;
52956;SDS011;38819;42.692;23.342;2023-04-25T08:51:59;10.90;;;6.63;;
52956;SDS011;38819;42.692;23.342;2023-04-25T08:54:31;14.45;;;8.73;;
52956;SDS011;38819;42.692;23.342;2023-04-25T08:56:57;17.33;;;10.68;;
52956;SDS011;38819;42.692;23.342;2023-04-25T08:59:26;12.63;;;9.38;;
52956;SDS011;38819;42.692;23.342;2023-04-25T09:01:52;10.57;;;8.00;;
52956;SDS011;38819;42.692;23.342;2023-04-25T09:04:18;11.52;;;7.00;;
52956;SDS011;38819;42.692;23.342;2023-04-25T09:09:10;10.05;;;6.47;;
52956;SDS011;38819;42.692;23.342;2023-04-25T09:11:36;14.18;;;7.95;;
52956;SDS011;38819;42.692;23.342;2023-04-25T09:14:12;11.88;;;7.57;;
52956;SDS011;38819;42.692;23.342;2023-04-25T09:19:23;5.43;;;4.93;;
52956;SDS011;38819;42.692;23.342;2023-04-25T09:21:50;6.28;;;5.45;;
52956;SDS011;38819;42.692;23.342;2023-04-25T09:24:18;6.38;;;3.63;;
52956;SDS011;38819;42.692;23.342;2023-04-25T09:26:55;5.35;;;4.65;;
52956;SDS011;38819;42.692;23.342;2023-04-25T09:29:20;9.15;;;4.78;;
52956;SDS011;38819;42.692;23.342;2023-04-25T09:32:10;4.25;;;3.65;;
52956;SDS011;38819;42.692;23.342;2023-04-25T09:34:40;5.90;;;4.63;;
52956;SDS011;38819;42.692;23.342;2023-04-25T09:37:09;12.30;;;6.03;;
52956;SDS011;38819;42.692;23.342;2023-04-25T09:39:39;7.60;;;5.32;;
52956;SDS011;38819;42.692;23.342;2023-04-25T09:42:04;10.60;;;5.15;;
52956;SDS011;38819;42.692;23.342;2023-04-25T09:44:31;11.02;;;5.53;;
52956;SDS011;38819;42.692;23.342;2023-04-25T09:46:56;12.18;;;5.50;;
52956;SDS011;38819;42.692;23.342;2023-04-25T09:49:22;8.98;;;4.45;;
52956;SDS011;38819;42.692;23.342;2023-04-25T09:51:54;10.13;;;5.15;;
52956;SDS011;38819;42.692;23.342;2023-04-25T09:54:25;8.20;;;4.70;;
52956;SDS011;38819;42.692;23.342;2023-04-25T09:56:51;9.40;;;5.03;;
52956;SDS011;38819;42.692;23.342;2023-04-25T09:59:22;9.25;;;5.63;;
52956;SDS011;38819;42.692;23.342;2023-04-25T10:01:50;12.57;;;5.07;;
52956;SDS011;38819;42.692;23.342;2023-04-25T10:04:23;7.43;;;4.85;;
52956;SDS011;38819;42.692;23.342;2023-04-25T10:06:51;9.57;;;4.93;;
52956;SDS011;38819;42.692;23.342;2023-04-25T10:11:50;10.60;;;4.05;;
52956;SDS011;38819;42.692;23.342;2023-04-25T10:14:16;10.63;;;3.80;;
52956;SDS011;38819;42.692;23.342;2023-04-25T10:16:42;5.90;;;3.67;;
52956;SDS011;38819;42.692;23.342;2023-04-25T10:19:09;9.70;;;3.53;;
52956;SDS011;38819;42.692;23.342;2023-04-25T10:21:35;17.23;;;4.68;;
52956;SDS011;38819;42.692;23.342;2023-04-25T10:24:05;11.20;;;5.45;;
52956;SDS011;38819;42.692;23.342;2023-04-25T10:26:31;8.63;;;5.05;;
52956;SDS011;38819;42.692;23.342;2023-04-25T10:29:01;6.45;;;2.58;;
52956;SDS011;38819;42.692;23.342;2023-04-25T10:31:29;5.40;;;2.20;;
52956;SDS011;38819;42.692;23.342;2023-04-25T10:33:56;1.65;;;1.42;;
52956;SDS011;38819;42.692;23.342;2023-04-25T10:36:22;6.55;;;2.38;;
52956;SDS011;38819;42.692;23.342;2023-04-25T10:38:48;3.40;;;2.17;;
52956;SDS011;38819;42.692;23.342;2023-04-25T10:41:17;1.70;;;1.08;;
52956;SDS011;38819;42.692;23.342;2023-04-25T10:43:44;8.15;;;1.50;;
52956;SDS011;38819;42.692;23.342;2023-04-25T10:46:24;1.10;;;1.00;;
52956;SDS011;38819;42.692;23.342;2023-04-25T10:48:53;2.00;;;1.35;;
52956;SDS011;38819;42.692;23.342;2023-04-25T10:51:23;4.32;;;1.40;;
52956;SDS011;38819;42.692;23.342;2023-04-25T10:54:06;4.70;;;1.40;;
52956;SDS011;38819;42.692;23.342;2023-04-25T11:01:39;3.78;;;1.33;;
52956;SDS011;38819;42.692;23.342;2023-04-25T11:04:08;4.47;;;1.50;;
52956;SDS011;38819;42.692;23.342;2023-04-25T11:09:27;2.03;;;1.05;;
52956;SDS011;38819;42.692;23.342;2023-04-25T11:11:57;4.75;;;1.13;;
52956;SDS011;38819;42.692;23.342;2023-04-25T11:14:25;3.38;;;0.80;;
52956;SDS011;38819;42.692;23.342;2023-04-25T11:16:54;2.08;;;1.25;;
52956;SDS011;38819;42.692;23.342;2023-04-25T11:19:21;8.93;;;1.67;;
52956;SDS011;38819;42.692;23.342;2023-04-25T11:21:46;2.30;;;1.13;;
52956;SDS011;38819;42.692;23.342;2023-04-25T11:24:12;4.55;;;1.05;;
52956;SDS011;38819;42.692;23.342;2023-04-25T11:26:37;5.18;;;1.55;;
52956;SDS011;38819;42.692;23.342;2023-04-25T11:29:03;3.20;;;1.00;;
52956;SDS011;38819;42.692;23.342;2023-04-25T11:31:29;3.00;;;1.20;;
52956;SDS011;38819;42.692;23.342;2023-04-25T11:33:58;1.40;;;1.00;;
52956;SDS011;38819;42.692;23.342;2023-04-25T11:36:24;4.28;;;1.67;;
52956;SDS011;38819;42.692;23.342;2023-04-25T11:38:51;1.50;;;1.10;;
52956;SDS011;38819;42.692;23.342;2023-04-25T11:41:18;3.80;;;1.23;;
52956;SDS011;38819;42.692;23.342;2023-04-25T11:43:44;2.17;;;1.08;;
52956;SDS011;38819;42.692;23.342;2023-04-25T11:46:09;5.82;;;1.20;;
52956;SDS011;38819;42.692;23.342;2023-04-25T11:48:39;3.10;;;1.08;;
52956;SDS011;38819;42.692;23.342;2023-04-25T11:51:05;2.42;;;0.95;;
52956;SDS011;38819;42.692;23.342;2023-04-25T11:53:31;1.17;;;1.00;;
52956;SDS011;38819;42.692;23.342;2023-04-25T11:55:56;2.20;;;1.00;;
52956;SDS011;38819;42.692;23.342;2023-04-25T11:58:22;1.67;;;1.20;;
52956;SDS011;38819;42.692;23.342;2023-04-25T12:00:48;1.27;;;1.17;;
52956;SDS011;38819;42.692;23.342;2023-04-25T12:03:13;0.98;;;0.93;;
52956;SDS011;38819;42.692;23.342;2023-04-25T12:05:38;2.13;;;0.90;;
52956;SDS011;38819;42.692;23.342;2023-04-25T12:08:11;2.10;;;1.17;;
52956;SDS011;38819;42.692;23.342;2023-04-25T12:10:38;2.70;;;1.23;;
52956;SDS011;38819;42.692;23.342;2023-04-25T12:13:19;3.33;;;1.05;;
52956;SDS011;38819;42.692;23.342;2023-04-25T12:15:45;0.93;;;0.93;;
52956;SDS011;38819;42.692;23.342;2023-04-25T12:18:11;0.90;;;0.80;;
52956;SDS011;38819;42.692;23.342;2023-04-25T12:20:36;1.35;;;0.70;;
52956;SDS011;38819;42.692;23.342;2023-04-25T12:23:01;0.68;;;0.60;;
52956;SDS011;38819;42.692;23.342;2023-04-25T12:25:39;1.52;;;0.95;;
52956;SDS011;38819;42.692;23.342;2023-04-25T12:28:23;1.02;;;0.90;;
52956;SDS011;38819;42.692;23.342;2023-04-25T12:33:23;1.27;;;0.90;;
52956;SDS011;38819;42.692;23.342;2023-04-25T12:35:48;1.73;;;1.05;;
52956;SDS011;38819;42.692;23.342;2023-04-25T12:38:20;1.95;;;1.30;;
52956;SDS011;38819;42.692;23.342;2023-04-25T12:40:59;9.82;;;1.80;;
52956;SDS011;38819;42.692;23.342;2023-04-25T12:43:25;3.50;;;1.50;;
52956;SDS011;38819;42.692;23.342;2023-04-25T12:45:51;4.32;;;1.48;;
52956;SDS011;38819;42.692;23.342;2023-04-25T12:48:18;2.28;;;0.70;;
52956;SDS011;38819;42.692;23.342;2023-04-25T12:50:45;2.70;;;1.17;;
52956;SDS011;38819;42.692;23.342;2023-04-25T12:53:13;1.88;;;1.20;;
52956;SDS011;38819;42.692;23.342;2023-04-25T12:55:39;1.63;;;1.15;;
52956;SDS011;38819;42.692;23.342;2023-04-25T12:58:05;10.15;;;1.45;;
52956;SDS011;38819;42.692;23.342;2023-04-25T13:00:30;3.13;;;1.33;;
52956;SDS011;38819;42.692;23.342;2023-04-25T13:02:56;2.13;;;1.05;;
52956;SDS011;38819;42.692;23.342;2023-04-25T13:05:22;1.63;;;1.17;;
52956;SDS011;38819;42.692;23.342;2023-04-25T13:07:47;1.30;;;1.20;;
52956;SDS011;38819;42.692;23.342;2023-04-25T13:10:13;3.50;;;1.20;;
52956;SDS011;38819;42.692;23.342;2023-04-25T13:12:38;4.22;;;1.65;;
52956;SDS011;38819;42.692;23.342;2023-04-25T13:15:04;5.18;;;1.80;;
52956;SDS011;38819;42.692;23.342;2023-04-25T13:17:30;4.47;;;1.90;;
52956;SDS011;38819;42.692;23.342;2023-04-25T13:19:55;2.92;;;1.88;;
52956;SDS011;38819;42.692;23.342;2023-04-25T13:22:20;2.92;;;1.48;;
52956;SDS011;38819;42.692;23.342;2023-04-25T13:24:46;11.07;;;1.60;;
52956;SDS011;38819;42.692;23.342;2023-04-25T13:27:12;4.05;;;1.90;;
52956;SDS011;38819;42.692;23.342;2023-04-25T13:29:38;4.63;;;2.33;;
52956;SDS011;38819;42.692;23.342;2023-04-25T13:32:05;4.70;;;2.15;;
52956;SDS011;38819;42.692;23.342;2023-04-25T13:34:31;4.53;;;1.95;;
52956;SDS011;38819;42.692;23.342;2023-04-25T13:36:56;3.47;;;1.70;;
52956;SDS011;38819;42.692;23.342;2023-04-25T13:39:22;3.45;;;2.13;;
52956;SDS011;38819;42.692;23.342;2023-04-25T13:41:47;4.43;;;2.40;;
52956;SDS011;38819;42.692;23.342;2023-04-25T13:44:13;2.97;;;2.13;;
52956;SDS011;38819;42.692;23.342;2023-04-25T13:46:38;5.63;;;2.50;;
52956;SDS011;38819;42.692;23.342;2023-04-25T13:49:04;6.78;;;2.58;;
52956;SDS011;38819;42.692;23.342;2023-04-25T13:51:30;8.77;;;2.80;;
52956;SDS011;38819;42.692;23.342;2023-04-25T13:53:55;3.97;;;2.10;;
52956;SDS011;38819;42.692;23.342;2023-04-25T13:56:21;3.92;;;2.28;;
52956;SDS011;38819;42.692;23.342;2023-04-25T13:58:48;2.83;;;2.17;;
52956;SDS011;38819;42.692;23.342;2023-04-25T14:01:13;4.32;;;2.22;;
52956;SDS011;38819;42.692;23.342;2023-04-25T14:03:39;3.60;;;2.50;;
52956;SDS011;38819;42.692;23.342;2023-04-25T14:06:06;7.00;;;2.67;;
52956;SDS011;38819;42.692;23.342;2023-04-25T14:08:31;4.82;;;2.17;;
52956;SDS011;38819;42.692;23.342;2023-04-25T14:10:57;3.65;;;1.73;;
52956;SDS011;38819;42.692;23.342;2023-04-25T14:13:22;2.63;;;2.05;;
52956;SDS011;38819;42.692;23.342;2023-04-25T14:15:48;5.03;;;2.13;;
52956;SDS011;38819;42.692;23.342;2023-04-25T14:18:15;2.20;;;1.63;;
52956;SDS011;38819;42.692;23.342;2023-04-25T14:20:40;1.50;;;1.40;;
52956;SDS011;38819;42.692;23.342;2023-04-25T14:23:06;3.53;;;1.60;;
52956;SDS011;38819;42.692;23.342;2023-04-25T14:25:31;3.60;;;1.92;;
52956;SDS011;38819;42.692;23.342;2023-04-25T14:27:57;2.33;;;1.40;;
52956;SDS011;38819;42.692;23.342;2023-04-25T14:30:22;2.15;;;1.10;;
52956;SDS011;38819;42.692;23.342;2023-04-25T14:32:48;1.30;;;1.20;;
52956;SDS011;38819;42.692;23.342;2023-04-25T14:35:14;2.53;;;1.37;;
52956;SDS011;38819;42.692;23.342;2023-04-25T14:37:40;1.23;;;1.00;;
52956;SDS011;38819;42.692;23.342;2023-04-25T14:40:06;3.10;;;1.27;;
52956;SDS011;38819;42.692;23.342;2023-04-25T14:42:36;2.03;;;1.30;;
52956;SDS011;38819;42.692;23.342;2023-04-25T14:45:05;4.55;;;1.50;;
52956;SDS011;38819;42.692;23.342;2023-04-25T14:47:32;2.42;;;1.58;;